sensor_id;sensor_type;location;lat;lon;timestamp;pressure;altitude;pressure_sealevel;temperature;humidity
40205;BME280;26963;42.666;23.366;2023-02-13T00:00:31;96686.41;;;2.74;60.09
40205;BME280;26963;42.666;23.366;2023-02-13T00:02:57;96611.09;;;2.36;60.35
40205;BME280;26963;42.666;23.366;2023-02-13T00:05:22;96684.38;;;2.76;59.68
40205;BME280;26963;42.666;23.366;2023-02-13T00:07:48;96592.72;;;2.15;60.33
40205;BME280;26963;42.666;23.366;2023-02-13T00:10:13;96688.84;;;2.75;60.25
40205;BME280;26963;42.666;23.366;2023-02-13T00:12:39;96692.50;;;2.74;60.16
40205;BME280;26963;42.666;23.366;2023-02-13T00:15:06;96607.56;;;2.16;60.57
40205;BME280;26963;42.666;23.366;2023-02-13T00:17:32;96487.28;;;1.44;60.27
40205;BME280;26963;42.666;23.366;2023-02-13T00:19:57;96699.84;;;2.72;60.32
40205;BME280;26963;42.666;23.366;2023-02-13T00:22:23;96685.97;;;2.64;60.44
40205;BME280;26963;42.666;23.366;2023-02-13T00:24:49;96707.13;;;2.70;60.34
40205;BME280;26963;42.666;23.366;2023-02-13T00:27:14;96674.97;;;2.60;60.14
40205;BME280;26963;42.666;23.366;2023-02-13T00:29:40;96670.88;;;2.51;60.08
40205;BME280;26963;42.666;23.366;2023-02-13T00:32:05;96690.06;;;2.66;60.16
40205;BME280;26963;42.666;23.366;2023-02-13T00:34:31;96670.94;;;2.64;60.00
40205;BME280;26963;42.666;23.366;2023-02-13T00:36:56;96697.19;;;2.72;59.87
40205;BME280;26963;42.666;23.366;2023-02-13T00:39:25;96687.22;;;2.74;59.52
40205;BME280;26963;42.666;23.366;2023-02-13T00:41:51;96669.69;;;2.60;60.11
40205;BME280;26963;42.666;23.366;2023-02-13T00:44:16;96682.72;;;2.68;59.67
40205;BME280;26963;42.666;23.366;2023-02-13T00:46:42;96703.06;;;2.74;59.91
40205;BME280;26963;42.666;23.366;2023-02-13T00:49:07;96686.16;;;2.62;60.31
40205;BME280;26963;42.666;23.366;2023-02-13T00:51:33;96703.06;;;2.74;60.10
40205;BME280;26963;42.666;23.366;2023-02-13T00:53:59;96688.63;;;2.70;60.60
40205;BME280;26963;42.666;23.366;2023-02-13T00:56:25;96698.63;;;2.75;59.93
40205;BME280;26963;42.666;23.366;2023-02-13T00:58:51;96580.88;;;1.97;59.70
40205;BME280;26963;42.666;23.366;2023-02-13T01:01:16;96698.41;;;2.76;59.88
40205;BME280;26963;42.666;23.366;2023-02-13T01:03:42;96620.44;;;2.32;59.33
40205;BME280;26963;42.666;23.366;2023-02-13T01:06:07;96714.91;;;2.85;59.48
40205;BME280;26963;42.666;23.366;2023-02-13T01:08:33;96701.69;;;2.85;59.67
40205;BME280;26963;42.666;23.366;2023-02-13T01:10:59;96712.06;;;2.87;59.88
40205;BME280;26963;42.666;23.366;2023-02-13T01:13:25;96645.66;;;2.41;59.49
40205;BME280;26963;42.666;23.366;2023-02-13T01:15:51;96694.56;;;2.86;59.36
40205;BME280;26963;42.666;23.366;2023-02-13T01:18:18;96686.44;;;2.81;59.73
40205;BME280;26963;42.666;23.366;2023-02-13T01:20:44;96687.47;;;2.86;59.76
40205;BME280;26963;42.666;23.366;2023-02-13T01:23:11;96687.25;;;2.88;59.55
40205;BME280;26963;42.666;23.366;2023-02-13T01:25:42;96686.22;;;2.82;59.92
40205;BME280;26963;42.666;23.366;2023-02-13T01:28:08;96709.06;;;3.03;59.74
40205;BME280;26963;42.666;23.366;2023-02-13T01:30:34;96673.78;;;2.76;59.61
40205;BME280;26963;42.666;23.366;2023-02-13T01:33:00;96713.75;;;3.08;59.72
40205;BME280;26963;42.666;23.366;2023-02-13T01:35:25;96675.44;;;2.84;60.03
40205;BME280;26963;42.666;23.366;2023-02-13T01:37:51;96714.16;;;3.12;59.87
40205;BME280;26963;42.666;23.366;2023-02-13T01:40:16;96693.41;;;3.08;59.95
40205;BME280;26963;42.666;23.366;2023-02-13T01:42:42;96714.59;;;3.22;59.61
40205;BME280;26963;42.666;23.366;2023-02-13T01:45:28;96573.91;;;2.38;59.61
40205;BME280;26963;42.666;23.366;2023-02-13T01:48:04;96701.16;;;3.17;59.70
40205;BME280;26963;42.666;23.366;2023-02-13T01:50:38;96634.78;;;2.85;59.64
40205;BME280;26963;42.666;23.366;2023-02-13T01:53:09;96642.91;;;2.90;59.31
40205;BME280;26963;42.666;23.366;2023-02-13T01:55:41;96722.34;;;3.43;59.44
40205;BME280;26963;42.666;23.366;2023-02-13T01:58:13;96729.66;;;3.48;59.55
40205;BME280;26963;42.666;23.366;2023-02-13T02:00:40;96710.75;;;3.45;58.99
40205;BME280;26963;42.666;23.366;2023-02-13T02:03:19;96700.97;;;3.38;58.93
40205;BME280;26963;42.666;23.366;2023-02-13T02:05:46;96721.75;;;3.55;58.86
40205;BME280;26963;42.666;23.366;2023-02-13T02:08:13;96660.44;;;3.18;59.24
40205;BME280;26963;42.666;23.366;2023-02-13T02:10:40;96708.91;;;3.52;58.84
40205;BME280;26963;42.666;23.366;2023-02-13T02:13:15;96709.94;;;3.57;58.56
40205;BME280;26963;42.666;23.366;2023-02-13T02:15:43;96721.34;;;3.58;58.65
40205;BME280;26963;42.666;23.366;2023-02-13T02:18:15;96676.31;;;3.18;58.61
40205;BME280;26963;42.666;23.366;2023-02-13T02:32:13;96712.38;;;3.52;58.53
40205;BME280;26963;42.666;23.366;2023-02-13T02:40:44;96711.94;;;3.35;58.68
40205;BME280;26963;42.666;23.366;2023-02-13T02:46:47;96731.31;;;3.42;59.07
40205;BME280;26963;42.666;23.366;2023-02-13T02:48:59;96732.53;;;3.40;58.95
40205;BME280;26963;42.666;23.366;2023-02-13T02:51:56;96718.66;;;3.24;59.06
40205;BME280;26963;42.666;23.366;2023-02-13T02:54:48;96737.81;;;3.33;59.65
40205;BME280;26963;42.666;23.366;2023-02-13T02:57:32;96661.63;;;2.82;58.94
40205;BME280;26963;42.666;23.366;2023-02-13T03:00:20;96752.84;;;3.33;59.22
40205;BME280;26963;42.666;23.366;2023-02-13T03:03:11;96744.50;;;3.29;59.51
40205;BME280;26963;42.666;23.366;2023-02-13T03:05:59;96693.38;;;2.95;59.02
40205;BME280;26963;42.666;23.366;2023-02-13T03:08:36;96687.47;;;2.93;59.34
40205;BME280;26963;42.666;23.366;2023-02-13T03:11:21;96734.53;;;3.24;59.60
40205;BME280;26963;42.666;23.366;2023-02-13T03:14:08;96741.41;;;3.05;58.55
40205;BME280;26963;42.666;23.366;2023-02-13T03:16:34;96725.84;;;2.75;57.09
40205;BME280;26963;42.666;23.366;2023-02-13T03:19:30;96694.81;;;2.36;59.33
40205;BME280;26963;42.666;23.366;2023-02-13T03:25:28;96698.38;;;2.21;59.08
40205;BME280;26963;42.666;23.366;2023-02-13T03:28:23;96672.25;;;1.98;59.87
40205;BME280;26963;42.666;23.366;2023-02-13T03:31:22;96737.66;;;2.31;60.17
40205;BME280;26963;42.666;23.366;2023-02-13T03:42:39;96743.34;;;2.00;60.14
40205;BME280;26963;42.666;23.366;2023-02-13T03:45:20;96696.41;;;1.67;60.39
40205;BME280;26963;42.666;23.366;2023-02-13T03:48:07;96694.31;;;1.55;62.15
40205;BME280;26963;42.666;23.366;2023-02-13T03:50:37;96741.56;;;1.78;61.79
40205;BME280;26963;42.666;23.366;2023-02-13T03:53:09;96734.72;;;1.84;61.70
40205;BME280;26963;42.666;23.366;2023-02-13T03:55:46;96745.31;;;1.91;61.68
40205;BME280;26963;42.666;23.366;2023-02-13T03:58:34;96733.63;;;1.78;61.77
40205;BME280;26963;42.666;23.366;2023-02-13T04:01:24;96625.75;;;1.05;61.88
40205;BME280;26963;42.666;23.366;2023-02-13T04:04:11;96738.78;;;1.87;62.51
40205;BME280;26963;42.666;23.366;2023-02-13T04:07:05;96708.84;;;1.73;62.85
40205;BME280;26963;42.666;23.366;2023-02-13T04:09:34;96743.69;;;1.90;61.68
40205;BME280;26963;42.666;23.366;2023-02-13T04:12:09;96742.31;;;1.94;60.52
40205;BME280;26963;42.666;23.366;2023-02-13T04:14:48;96748.72;;;1.85;59.62
40205;BME280;26963;42.666;23.366;2023-02-13T04:17:29;96744.19;;;1.78;61.04
40205;BME280;26963;42.666;23.366;2023-02-13T04:19:56;96716.59;;;1.53;60.48
40205;BME280;26963;42.666;23.366;2023-02-13T04:22:24;96635.22;;;0.78;61.93
40205;BME280;26963;42.666;23.366;2023-02-13T04:24:50;96741.44;;;1.58;61.73
40205;BME280;26963;42.666;23.366;2023-02-13T04:27:16;96637.91;;;0.85;61.72
40205;BME280;26963;42.666;23.366;2023-02-13T04:29:42;96747.50;;;1.59;61.42
40205;BME280;26963;42.666;23.366;2023-02-13T04:32:10;96729.94;;;1.44;60.81
40205;BME280;26963;42.666;23.366;2023-02-13T04:34:37;96753.16;;;1.56;61.44
40205;BME280;26963;42.666;23.366;2023-02-13T04:37:02;96758.81;;;1.53;61.09
40205;BME280;26963;42.666;23.366;2023-02-13T04:39:28;96766.34;;;1.56;61.35
40205;BME280;26963;42.666;23.366;2023-02-13T04:41:53;96748.06;;;1.54;61.16
40205;BME280;26963;42.666;23.366;2023-02-13T04:44:19;96734.81;;;1.48;60.92
40205;BME280;26963;42.666;23.366;2023-02-13T04:46:44;96665.91;;;1.07;61.09
40205;BME280;26963;42.666;23.366;2023-02-13T04:49:10;96744.75;;;1.45;60.66
40205;BME280;26963;42.666;23.366;2023-02-13T04:51:35;96750.22;;;1.44;60.68
40205;BME280;26963;42.666;23.366;2023-02-13T04:54:01;96757.00;;;1.32;61.72
40205;BME280;26963;42.666;23.366;2023-02-13T04:56:27;96701.50;;;0.96;61.90
40205;BME280;26963;42.666;23.366;2023-02-13T04:58:53;96770.13;;;1.25;62.51
40205;BME280;26963;42.666;23.366;2023-02-13T05:01:19;96767.97;;;1.13;63.39
40205;BME280;26963;42.666;23.366;2023-02-13T05:03:44;96758.66;;;0.96;62.34
40205;BME280;26963;42.666;23.366;2023-02-13T05:06:10;96742.75;;;0.68;62.79
40205;BME280;26963;42.666;23.366;2023-02-13T05:08:35;96770.25;;;0.80;63.61
40205;BME280;26963;42.666;23.366;2023-02-13T05:11:01;96736.97;;;0.42;63.66
40205;BME280;26963;42.666;23.366;2023-02-13T05:13:26;96772.97;;;0.57;63.80
40205;BME280;26963;42.666;23.366;2023-02-13T05:15:52;96791.97;;;0.67;64.11
40205;BME280;26963;42.666;23.366;2023-02-13T05:18:18;96780.69;;;0.73;64.06
40205;BME280;26963;42.666;23.366;2023-02-13T05:20:44;96730.06;;;0.41;63.76
40205;BME280;26963;42.666;23.366;2023-02-13T05:23:30;96776.97;;;0.68;64.01
40205;BME280;26963;42.666;23.366;2023-02-13T05:25:55;96785.59;;;0.76;63.84
40205;BME280;26963;42.666;23.366;2023-02-13T05:28:21;96785.97;;;0.73;63.90
40205;BME280;26963;42.666;23.366;2023-02-13T05:31:05;96677.78;;;0.08;64.19
40205;BME280;26963;42.666;23.366;2023-02-13T05:33:30;96783.22;;;0.81;63.75
40205;BME280;26963;42.666;23.366;2023-02-13T05:35:56;96692.66;;;0.31;63.57
40205;BME280;26963;42.666;23.366;2023-02-13T05:38:21;96778.88;;;0.89;63.87
40205;BME280;26963;42.666;23.366;2023-02-13T05:40:47;96760.59;;;0.87;63.42
40205;BME280;26963;42.666;23.366;2023-02-13T05:43:12;96795.28;;;1.06;63.72
40205;BME280;26963;42.666;23.366;2023-02-13T05:45:37;96803.88;;;1.14;63.37
40205;BME280;26963;42.666;23.366;2023-02-13T05:48:03;96802.75;;;1.24;62.63
40205;BME280;26963;42.666;23.366;2023-02-13T05:50:28;96725.81;;;0.77;63.07
40205;BME280;26963;42.666;23.366;2023-02-13T05:52:54;96768.66;;;1.01;62.67
40205;BME280;26963;42.666;23.366;2023-02-13T05:55:20;96730.63;;;0.73;62.74
40205;BME280;26963;42.666;23.366;2023-02-13T05:57:45;96809.44;;;1.05;63.63
40205;BME280;26963;42.666;23.366;2023-02-13T06:00:11;96795.94;;;0.93;64.07
40205;BME280;26963;42.666;23.366;2023-02-13T06:02:37;96806.09;;;0.96;64.13
40205;BME280;26963;42.666;23.366;2023-02-13T06:05:03;96802.41;;;0.90;64.20
40205;BME280;26963;42.666;23.366;2023-02-13T06:07:28;96801.56;;;0.90;63.68
40205;BME280;26963;42.666;23.366;2023-02-13T06:09:54;96736.75;;;0.59;63.66
40205;BME280;26963;42.666;23.366;2023-02-13T06:12:21;96802.47;;;0.97;63.66
40205;BME280;26963;42.666;23.366;2023-02-13T06:14:46;96804.38;;;1.03;63.74
40205;BME280;26963;42.666;23.366;2023-02-13T06:17:12;96820.16;;;1.18;65.51
40205;BME280;26963;42.666;23.366;2023-02-13T06:19:37;96821.47;;;1.29;65.09
40205;BME280;26963;42.666;23.366;2023-02-13T06:22:03;96804.00;;;1.28;63.00
40205;BME280;26963;42.666;23.366;2023-02-13T06:24:28;96829.41;;;1.51;62.93
40205;BME280;26963;42.666;23.366;2023-02-13T06:26:53;96747.13;;;1.19;62.36
40205;BME280;26963;42.666;23.366;2023-02-13T06:29:19;96791.47;;;1.52;61.00
40205;BME280;26963;42.666;23.366;2023-02-13T06:31:44;96808.84;;;1.61;60.89
40205;BME280;26963;42.666;23.366;2023-02-13T06:34:10;96829.59;;;1.71;61.34
40205;BME280;26963;42.666;23.366;2023-02-13T06:36:35;96831.63;;;1.69;61.86
40205;BME280;26963;42.666;23.366;2023-02-13T06:39:03;96830.28;;;1.58;61.85
40205;BME280;26963;42.666;23.366;2023-02-13T06:41:28;96781.75;;;1.30;62.05
40205;BME280;26963;42.666;23.366;2023-02-13T06:43:54;96832.81;;;1.66;62.17
40205;BME280;26963;42.666;23.366;2023-02-13T06:46:20;96752.84;;;1.22;61.64
40205;BME280;26963;42.666;23.366;2023-02-13T06:48:45;96764.16;;;1.38;61.63
40205;BME280;26963;42.666;23.366;2023-02-13T06:51:11;96807.53;;;1.78;60.47
40205;BME280;26963;42.666;23.366;2023-02-13T06:53:36;96831.03;;;1.95;60.74
40205;BME280;26963;42.666;23.366;2023-02-13T06:56:03;96807.41;;;1.87;60.31
40205;BME280;26963;42.666;23.366;2023-02-13T06:58:30;96831.16;;;2.08;60.78
40205;BME280;26963;42.666;23.366;2023-02-13T07:00:55;96750.38;;;1.64;60.64
40205;BME280;26963;42.666;23.366;2023-02-13T07:03:21;96830.88;;;2.25;60.56
40205;BME280;26963;42.666;23.366;2023-02-13T07:05:46;96808.97;;;2.31;60.44
40205;BME280;26963;42.666;23.366;2023-02-13T07:08:12;96802.06;;;2.30;59.77
40205;BME280;26963;42.666;23.366;2023-02-13T07:10:39;96799.41;;;2.30;58.91
40205;BME280;26963;42.666;23.366;2023-02-13T07:13:05;96789.91;;;2.36;58.90
40205;BME280;26963;42.666;23.366;2023-02-13T07:15:32;96755.69;;;2.21;59.08
40205;BME280;26963;42.666;23.366;2023-02-13T07:17:59;96814.38;;;2.51;59.31
40205;BME280;26963;42.666;23.366;2023-02-13T07:20:25;96814.94;;;2.75;58.91
40205;BME280;26963;42.666;23.366;2023-02-13T07:22:51;96823.97;;;2.94;58.03
40205;BME280;26963;42.666;23.366;2023-02-13T07:25:17;96795.88;;;2.86;57.65
40205;BME280;26963;42.666;23.366;2023-02-13T07:27:43;96813.38;;;2.94;57.15
40205;BME280;26963;42.666;23.366;2023-02-13T07:30:09;96742.44;;;2.56;58.20
40205;BME280;26963;42.666;23.366;2023-02-13T07:32:34;96835.81;;;3.12;58.00
40205;BME280;26963;42.666;23.366;2023-02-13T07:35:00;96818.72;;;3.07;57.79
40205;BME280;26963;42.666;23.366;2023-02-13T07:37:30;96820.97;;;3.10;57.36
40205;BME280;26963;42.666;23.366;2023-02-13T07:39:55;96837.28;;;3.21;57.21
40205;BME280;26963;42.666;23.366;2023-02-13T07:42:21;96759.16;;;2.70;57.69
40205;BME280;26963;42.666;23.366;2023-02-13T07:44:47;96745.34;;;2.68;57.33
40205;BME280;26963;42.666;23.366;2023-02-13T07:47:12;96768.94;;;2.69;57.56
40205;BME280;26963;42.666;23.366;2023-02-13T07:49:38;96836.63;;;3.05;57.65
40205;BME280;26963;42.666;23.366;2023-02-13T07:52:04;96834.59;;;3.07;58.01
40205;BME280;26963;42.666;23.366;2023-02-13T07:54:30;96836.63;;;3.05;58.72
40205;BME280;26963;42.666;23.366;2023-02-13T07:56:57;96821.13;;;3.02;58.93
40205;BME280;26963;42.666;23.366;2023-02-13T07:59:23;96834.81;;;3.13;58.35
40205;BME280;26963;42.666;23.366;2023-02-13T08:01:48;96797.91;;;2.98;58.07
40205;BME280;26963;42.666;23.366;2023-02-13T08:04:14;96837.88;;;3.23;58.05
40205;BME280;26963;42.666;23.366;2023-02-13T08:06:40;96797.13;;;3.04;58.01
40205;BME280;26963;42.666;23.366;2023-02-13T08:09:06;96824.06;;;3.14;57.72
40205;BME280;26963;42.666;23.366;2023-02-13T08:12:13;96825.69;;;3.22;58.22
40205;BME280;26963;42.666;23.366;2023-02-13T08:18:11;96768.22;;;2.96;57.77
40205;BME280;26963;42.666;23.366;2023-02-13T08:20:37;96674.28;;;2.38;57.19
40205;BME280;26963;42.666;23.366;2023-02-13T08:23:04;96805.94;;;3.18;57.58
40205;BME280;26963;42.666;23.366;2023-02-13T08:25:30;96820.84;;;3.32;57.58
40205;BME280;26963;42.666;23.366;2023-02-13T08:27:55;96804.97;;;3.32;57.35
40205;BME280;26963;42.666;23.366;2023-02-13T08:30:21;96761.75;;;3.12;57.33
40205;BME280;26963;42.666;23.366;2023-02-13T08:32:46;96811.53;;;3.56;57.08
40205;BME280;26963;42.666;23.366;2023-02-13T08:35:12;96835.56;;;3.68;56.58
40205;BME280;26963;42.666;23.366;2023-02-13T08:37:37;96813.16;;;3.64;56.43
40205;BME280;26963;42.666;23.366;2023-02-13T08:40:03;96760.16;;;3.24;56.73
40205;BME280;26963;42.666;23.366;2023-02-13T08:42:29;96771.63;;;3.45;56.36
40205;BME280;26963;42.666;23.366;2023-02-13T08:44:54;96794.03;;;3.62;55.89
40205;BME280;26963;42.666;23.366;2023-02-13T08:47:20;96775.31;;;3.64;55.51
40205;BME280;26963;42.666;23.366;2023-02-13T08:49:46;96719.09;;;3.41;54.77
40205;BME280;26963;42.666;23.366;2023-02-13T08:52:11;96814.22;;;4.03;54.98
40205;BME280;26963;42.666;23.366;2023-02-13T08:54:37;96740.66;;;3.52;54.89
40205;BME280;26963;42.666;23.366;2023-02-13T08:57:03;96831.34;;;4.07;54.83
40205;BME280;26963;42.666;23.366;2023-02-13T08:59:29;96817.28;;;3.94;54.44
40205;BME280;26963;42.666;23.366;2023-02-13T09:01:55;96818.50;;;4.04;54.70
40205;BME280;26963;42.666;23.366;2023-02-13T09:04:21;96743.94;;;3.54;55.02
40205;BME280;26963;42.666;23.366;2023-02-13T09:06:46;96773.88;;;3.95;54.29
40205;BME280;26963;42.666;23.366;2023-02-13T09:09:12;96744.75;;;3.81;54.07
40205;BME280;26963;42.666;23.366;2023-02-13T09:11:37;96775.31;;;4.11;53.91
40205;BME280;26963;42.666;23.366;2023-02-13T09:14:03;96823.78;;;4.38;53.98
40205;BME280;26963;42.666;23.366;2023-02-13T09:16:28;96819.69;;;4.35;54.01
40205;BME280;26963;42.666;23.366;2023-02-13T09:18:54;96827.44;;;4.44;54.39
40205;BME280;26963;42.666;23.366;2023-02-13T09:21:21;96615.09;;;3.21;54.31
40205;BME280;26963;42.666;23.366;2023-02-13T09:23:48;96814.34;;;4.76;53.59
40205;BME280;26963;42.666;23.366;2023-02-13T09:26:15;96822.00;;;4.97;52.74
40205;BME280;26963;42.666;23.366;2023-02-13T09:28:41;96789.41;;;4.83;52.91
40205;BME280;26963;42.666;23.366;2023-02-13T09:31:10;96812.19;;;5.04;52.95
40205;BME280;26963;42.666;23.366;2023-02-13T09:33:39;96738.25;;;4.69;52.42
40205;BME280;26963;42.666;23.366;2023-02-13T09:36:11;96794.59;;;5.17;52.15
40205;BME280;26963;42.666;23.366;2023-02-13T09:38:56;96726.47;;;5.11;51.60
40205;BME280;26963;42.666;23.366;2023-02-13T09:41:27;96803.66;;;5.73;51.59
40205;BME280;26963;42.666;23.366;2023-02-13T09:44:09;96803.59;;;5.80;51.21
40205;BME280;26963;42.666;23.366;2023-02-13T09:47:25;96792.13;;;5.86;50.65
40205;BME280;26963;42.666;23.366;2023-02-13T09:52:37;96693.78;;;5.67;49.25
40205;BME280;26963;42.666;23.366;2023-02-13T09:55:17;96774.72;;;6.22;49.30
40205;BME280;26963;42.666;23.366;2023-02-13T09:58:14;96772.84;;;6.23;49.20
40205;BME280;26963;42.666;23.366;2023-02-13T10:00:42;96729.94;;;6.00;49.11
40205;BME280;26963;42.666;23.366;2023-02-13T10:03:19;96774.56;;;6.35;48.92
40205;BME280;26963;42.666;23.366;2023-02-13T10:16:56;96753.44;;;6.41;49.48
40205;BME280;26963;42.666;23.366;2023-02-13T10:22:26;96716.53;;;7.00;48.21
40205;BME280;26963;42.666;23.366;2023-02-13T10:25:02;96739.19;;;7.51;46.70
40205;BME280;26963;42.666;23.366;2023-02-13T10:27:33;96735.19;;;7.73;46.75
40205;BME280;26963;42.666;23.366;2023-02-13T10:35:56;96726.16;;;8.45;45.39
40205;BME280;26963;42.666;23.366;2023-02-13T10:38:23;96722.47;;;8.46;43.99
40205;BME280;26963;42.666;23.366;2023-02-13T10:44:04;96713.19;;;8.13;44.26
40205;BME280;26963;42.666;23.366;2023-02-13T10:52:35;96703.09;;;8.15;45.52
40205;BME280;26963;42.666;23.366;2023-02-13T10:55:13;96692.91;;;8.24;45.17
40205;BME280;26963;42.666;23.366;2023-02-13T10:58:21;96693.25;;;8.27;44.94
40205;BME280;26963;42.666;23.366;2023-02-13T11:01:15;96696.13;;;8.61;44.72
40205;BME280;26963;42.666;23.366;2023-02-13T11:03:42;96615.09;;;8.27;43.25
40205;BME280;26963;42.666;23.366;2023-02-13T11:06:14;96595.75;;;8.20;42.65
40205;BME280;26963;42.666;23.366;2023-02-13T11:08:43;96673.25;;;8.65;42.21
40205;BME280;26963;42.666;23.366;2023-02-13T11:11:33;96669.56;;;8.43;43.15
40205;BME280;26963;42.666;23.366;2023-02-13T11:14:21;96663.97;;;8.56;43.39
40205;BME280;26963;42.666;23.366;2023-02-13T11:17:02;96671.47;;;8.83;42.80
40205;BME280;26963;42.666;23.366;2023-02-13T11:19:36;96650.38;;;8.98;41.71
40205;BME280;26963;42.666;23.366;2023-02-13T11:22:16;96633.34;;;8.88;42.22
40205;BME280;26963;42.666;23.366;2023-02-13T11:24:54;96653.56;;;9.12;42.25
40205;BME280;26963;42.666;23.366;2023-02-13T11:27:29;96627.56;;;9.08;42.30
40205;BME280;26963;42.666;23.366;2023-02-13T11:29:58;96622.09;;;9.32;41.28
40205;BME280;26963;42.666;23.366;2023-02-13T11:32:25;96633.63;;;9.49;40.90
40205;BME280;26963;42.666;23.366;2023-02-13T11:34:52;96612.31;;;9.54;40.67
40205;BME280;26963;42.666;23.366;2023-02-13T11:37:29;96601.63;;;9.54;40.22
40205;BME280;26963;42.666;23.366;2023-02-13T11:39:57;96586.81;;;9.29;40.71
40205;BME280;26963;42.666;23.366;2023-02-13T11:42:29;96569.97;;;9.12;41.25
40205;BME280;26963;42.666;23.366;2023-02-13T11:45:05;96607.53;;;9.22;41.06
40205;BME280;26963;42.666;23.366;2023-02-13T11:47:35;96606.66;;;9.34;41.49
40205;BME280;26963;42.666;23.366;2023-02-13T11:50:03;96588.03;;;9.39;41.02
40205;BME280;26963;42.666;23.366;2023-02-13T11:52:31;96579.34;;;9.66;40.57
40205;BME280;26963;42.666;23.366;2023-02-13T11:55:00;96552.91;;;9.86;39.72
40205;BME280;26963;42.666;23.366;2023-02-13T11:57:36;96555.38;;;9.93;38.97
40205;BME280;26963;42.666;23.366;2023-02-13T12:00:26;96578.44;;;9.99;39.09
40205;BME280;26963;42.666;23.366;2023-02-13T12:02:55;96555.44;;;9.76;38.89
40205;BME280;26963;42.666;23.366;2023-02-13T12:05:23;96565.13;;;9.82;39.09
40205;BME280;26963;42.666;23.366;2023-02-13T12:07:49;96563.09;;;9.89;39.06
40205;BME280;26963;42.666;23.366;2023-02-13T12:10:25;96552.03;;;10.03;38.80
40205;BME280;26963;42.666;23.366;2023-02-13T12:15:24;96564.00;;;10.17;38.01
40205;BME280;26963;42.666;23.366;2023-02-13T12:18:26;96556.03;;;10.22;37.46
40205;BME280;26963;42.666;23.366;2023-02-13T12:24:18;96547.06;;;9.89;38.49
40205;BME280;26963;42.666;23.366;2023-02-13T12:27:32;96547.25;;;10.05;37.53
40205;BME280;26963;42.666;23.366;2023-02-13T12:33:59;96488.84;;;9.96;37.57
40205;BME280;26963;42.666;23.366;2023-02-13T12:36:34;96544.78;;;10.42;37.11
40205;BME280;26963;42.666;23.366;2023-02-13T12:39:24;96530.44;;;10.32;36.22
40205;BME280;26963;42.666;23.366;2023-02-13T12:47:28;96506.88;;;9.84;36.68
40205;BME280;26963;42.666;23.366;2023-02-13T13:01:43;96472.38;;;9.60;35.68
40205;BME280;26963;42.666;23.366;2023-02-13T13:08:00;96507.63;;;10.02;36.23
40205;BME280;26963;42.666;23.366;2023-02-13T13:16:02;96502.72;;;9.71;35.97
40205;BME280;26963;42.666;23.366;2023-02-13T13:21:10;96493.84;;;9.49;36.50
40205;BME280;26963;42.666;23.366;2023-02-13T13:28:48;96480.31;;;9.16;36.97
40205;BME280;26963;42.666;23.366;2023-02-13T13:31:15;96474.00;;;9.22;36.87
40205;BME280;26963;42.666;23.366;2023-02-13T13:33:43;96484.00;;;9.32;37.06
40205;BME280;26963;42.666;23.366;2023-02-13T13:36:30;96479.81;;;9.19;36.95
40205;BME280;26963;42.666;23.366;2023-02-13T13:44:49;96485.34;;;8.61;37.79
40205;BME280;26963;42.666;23.366;2023-02-13T13:47:44;96474.91;;;8.77;38.42
40205;BME280;26963;42.666;23.366;2023-02-13T13:50:26;96484.06;;;8.81;38.08
40205;BME280;26963;42.666;23.366;2023-02-13T13:53:28;96474.09;;;8.59;38.20
40205;BME280;26963;42.666;23.366;2023-02-13T13:58:54;96468.44;;;8.27;38.18
40205;BME280;26963;42.666;23.366;2023-02-13T14:01:30;96446.13;;;8.33;38.49
40205;BME280;26963;42.666;23.366;2023-02-13T14:06:27;96475.72;;;8.31;38.83
40205;BME280;26963;42.666;23.366;2023-02-13T14:08:59;96483.44;;;8.16;39.11
40205;BME280;26963;42.666;23.366;2023-02-13T14:11:32;96470.97;;;8.05;40.71
40205;BME280;26963;42.666;23.366;2023-02-13T14:13:59;96452.94;;;8.12;40.19
40205;BME280;26963;42.666;23.366;2023-02-13T14:16:41;96465.22;;;8.42;39.98
40205;BME280;26963;42.666;23.366;2023-02-13T14:19:28;96454.72;;;8.35;39.50
40205;BME280;26963;42.666;23.366;2023-02-13T14:22:30;96468.09;;;8.23;39.38
40205;BME280;26963;42.666;23.366;2023-02-13T14:24:57;96462.56;;;8.13;39.55
40205;BME280;26963;42.666;23.366;2023-02-13T14:27:39;96450.88;;;8.14;39.49
40205;BME280;26963;42.666;23.366;2023-02-13T14:30:26;96446.13;;;8.16;39.82
40205;BME280;26963;42.666;23.366;2023-02-13T14:32:52;96449.03;;;8.14;39.78
40205;BME280;26963;42.666;23.366;2023-02-13T14:35:33;96421.00;;;7.83;40.49
40205;BME280;26963;42.666;23.366;2023-02-13T14:38:02;96447.16;;;7.86;41.16
40205;BME280;26963;42.666;23.366;2023-02-13T14:43:27;96446.88;;;7.99;40.55
40205;BME280;26963;42.666;23.366;2023-02-13T14:51:34;96388.31;;;7.47;40.87
40205;BME280;26963;42.666;23.366;2023-02-13T14:54:05;96444.25;;;7.88;41.06
40205;BME280;26963;42.666;23.366;2023-02-13T14:56:31;96342.16;;;7.29;41.12
40205;BME280;26963;42.666;23.366;2023-02-13T14:59:04;96432.63;;;7.94;41.01
40205;BME280;26963;42.666;23.366;2023-02-13T15:01:51;96441.81;;;7.86;40.79
40205;BME280;26963;42.666;23.366;2023-02-13T15:04:29;96443.00;;;7.78;40.87
40205;BME280;26963;42.666;23.366;2023-02-13T15:06:56;96449.44;;;7.65;41.54
40205;BME280;26963;42.666;23.366;2023-02-13T15:11:57;96448.97;;;7.57;41.63
40205;BME280;26963;42.666;23.366;2023-02-13T15:14:30;96350.69;;;7.02;41.85
40205;BME280;26963;42.666;23.366;2023-02-13T15:19:46;96447.53;;;7.25;42.12
40205;BME280;26963;42.666;23.366;2023-02-13T15:24:46;96371.75;;;6.68;42.80
40205;BME280;26963;42.666;23.366;2023-02-13T15:27:27;96428.09;;;7.13;42.33
40205;BME280;26963;42.666;23.366;2023-02-13T15:29:56;96434.44;;;7.12;42.34
40205;BME280;26963;42.666;23.366;2023-02-13T15:32:33;96445.31;;;7.10;42.34
40205;BME280;26963;42.666;23.366;2023-02-13T15:35:01;96451.47;;;6.87;42.91
40205;BME280;26963;42.666;23.366;2023-02-13T15:37:31;96450.56;;;6.93;43.22
40205;BME280;26963;42.666;23.366;2023-02-13T15:40:15;96455.75;;;7.00;42.94